LPPTLPMR

Guest
Details From LPPT - Lisboa
To LPMR - MONTE REAL
Flight Number -
Tags generated
Created
Modified
Stats Distance 65 nm / 120 km
Max Altitude 2,300 ft / 701 m
Waypoints 3
Social Downloads 0
Likes 0
Share VATSIM

Download

Looking for another format? Having issues loading an existing format? Contact us
Advertisement - Login to hide

Notes

Basic altitude profile: - Ascent Rate: 1500ft/min - Ascent Speed: 190kts - Cruise Altitude: 25000ft - Cruise Speed: 250kts - Descent Rate: 1500ft/min - Descent Speed: 190kts Options: - Use NATs: yes - Use PACOTS: yes - Use low airways: yes - Use high airways: yes

Route

LPPT LISGU LPMR

ID Type Via Altitude Latitude Longitude Leg Dist Tot Dist Heading (true) Name
O LPPT APT - 0 ft / 0 m 38.77856˚ -9.13515˚ - 0 nm - Lisboa
LISGU FIX - 2,300 ft / 701 m 38.88778˚ -9.16278˚ 6 nm 6 nm 349° / 349° -
O LPMR APT - 0 ft / 0 m 39.83124˚ -8.88726˚ 58 nm 64 nm 13° / 13° MONTE REAL

Altitude Profile

Advertisement - Login to hide

LPPT

Details ICAO LPPT (LIS)
Name Lisboa
Region Portugal
Timezone Europe/Lisbon (UTC+1.0)
Stats Elevation 374 ft / 114 m (AMSL)
Location 38.778559° -9.135146°
Runways 2
Magnetic Variation 2.310° W

METAR

LPPT 231130Z 08006KT 020V150 9999 FEW028 21/14 Q1015

Decode

TAF

TAF AMD LPPT 230935Z 2309/2412 08005KT 9999 SCT015 BECMG 2311/2313 13005KT FEW020 SCT035 BECMG 2313/2315 21008KT BECMG 2316/2318 33012KT BECMG 2400/2402 VRB03KT TEMPO 2403/2412 8000 SHRA BKN015 FEW030TCU

Decode

Departure Runways

ID Width Length Bearing (true) Bearing (mag) Surface Threshold Offset Overrun Length
03 148 ft / 45 m 12,518 ft / 3,815 m 22.70° 25.01° Asphalt 296 ft / 90 m 0 ft / 0 m
17 148 ft / 45 m 7,922 ft / 2,415 m 168.38° 170.69° Asphalt 0 ft / 0 m 0 ft / 0 m
21 148 ft / 45 m 12,518 ft / 3,815 m 202.72° 205.03° Asphalt 1,969 ft / 600 m 0 ft / 0 m
35 148 ft / 45 m 7,922 ft / 2,415 m 348.38° 350.69° Asphalt 492 ft / 150 m 0 ft / 0 m

LPMR

Details ICAO LPMR
Name MONTE REAL
Region Portugal
Timezone Europe/Lisbon (UTC+1.0)
Stats Elevation 187 ft / 57 m (AMSL)
Location 39.831239° -8.887258°
Runways 1
Magnetic Variation 2.272° W

METAR

LPMR 231100Z VRB03KT 9999 FEW025 23/14 Q1015

Decode

TAF

TAF TAF LPMR 230508Z 2306/2406 VRB02KT 9999 FEW030 PROB40 2306/2308 2000 BR BKN004 BECMG 2310/2312 30008KT CAVOK BECMG 2322/2324 VRB02KT FEW020 PROB40 2402/2406 0400 FG BKN004

Decode

Destination Runways

ID Width Length Bearing (true) Bearing (mag) Surface Threshold Offset Overrun Length
01 148 ft / 45 m 9,833 ft / 2,997 m 1.73° 4.00° Concrete 886 ft / 270 m 0 ft / 0 m
19 148 ft / 45 m 9,833 ft / 2,997 m 181.73° 184.00° Concrete 863 ft / 263 m 0 ft / 0 m

Approach Navaids

Runway Type Ident Frequency Range Bearing (true) Bearing (mag) Slope Elevation
19 Localiser MR 110.30 MHz 18 nm / 33 km 181.74° 184.02° - 187 ft / 57 m (AMSL)
19 Glidescope MR 110.30 MHz 10 nm / 19 km 181.73° 184.01° 2.50° 187 ft / 57 m (AMSL)

Popular Alternatives